Stunt Ranch Reserve, Santa Monica Mtns, California Weather observations

Data are for 10 minute period ending at time listed.
 Day   Time   Solar   Ave.   Ave.  Ave.  Vector  Max.   Baro.   Total    
  of    of     Rad.   Air    Rel.  Wind   Wind   Wind  Press.  Precip.   
Year   Day            Temp.  Hum.  Speed  Dir.   Gust                    
2018   (PST)  Kw/m2    F      %     mph   deg.    mph    mb.     in.     
-------------------------------------------------------------------------
 348   14:10   0.16   64.0    35    3.3   284     6.1   974.8    0.00 
 348   14:20   0.14   63.3    33    0.9   284     2.8   974.7    0.00 
 348   14:30   0.13   63.1    34    0.4   340     1.8   974.7    0.00 
 348   14:40   0.15   62.5    34    0.4    44     1.8   974.7    0.00 
 348   14:50   0.25   63.3    33    0.5   293     2.1   974.7    0.00 
 348   15:00   0.24   64.3    32    1.4   292     3.1   974.7    0.00 
 348   15:10   0.14   64.5    32    1.1   287     2.3   974.9    0.00 
 348   15:20   0.06   63.8    33    0.8   258     1.8   974.9    0.00 
 348   15:30   0.09   62.5    38    0.9   127     2.0   974.8    0.00 
 348   15:40   0.06   61.4    38    0.9   140     2.3   974.8    0.00 
 348   15:50   0.05   61.0    34    0.0    25     0.6   974.8    0.00 
 348   16:00   0.03   60.6    35    0.0     0     0.0   974.8    0.00 
 348   16:10   0.02   60.0    36    0.5   189     1.3   974.8    0.00 
 348   16:20   0.02   59.0    39    1.7   174     2.6   974.8    0.00 
 348   16:30   0.01   58.7    34    1.2   212     2.7   974.7    0.00 
 348   16:40   0.00   58.2    31    2.2   159     3.9   974.7    0.00 
 348   16:50   0.00   58.6    28    2.3   146     3.3   974.6    0.00 
 348   17:00   0.00   58.7    27    2.5   143     4.4   974.6    0.00 
 348   17:10   0.00   59.4    24    0.9   178     2.7   974.7    0.00 
 348   17:20   0.00   60.1    23    0.7   345     2.0   974.8    0.00 
 348   17:30   0.00   60.2    25    0.2   299     1.2   974.8    0.00 
 348   17:40   0.00   58.9    28    1.2   142     2.6   974.8    0.00 
 348   17:50   0.00   58.5    28    3.6   158     5.2   974.8    0.00 
 348   18:00   0.00   59.7    26    2.6   235     6.3   974.8    0.00 
 348   18:10   0.00   57.8    32    2.1   270     5.5   974.8    0.00 
 348   18:20   0.00   57.1    33    1.7   172     4.8   974.9    0.00 
 348   18:30   0.00   57.1    31    3.7   142     5.7   974.9    0.00 
 348   18:40   0.00   57.4    30    1.9   260     3.4   974.9    0.00 
 348   18:50   0.00   56.0    37    2.2   168     5.7   975.1    0.00 
 348   19:00   0.00   56.2    31    6.2   141     9.5   974.9    0.00 
 348   19:10   0.00   58.0    24    5.0   149     7.0   974.9    0.00 
 348   19:20   0.00   59.8    21    2.0   141     5.9   975.0    0.00 
 348   19:30   0.00   59.2    24    1.4   276     4.2   975.0    0.00 
 348   19:40   0.00   57.6    28    1.8   230     3.7   974.9    0.00 
 348   19:50   0.00   56.5    28    3.4   132     5.2   974.6    0.00 
 348   20:00   0.00   57.5    23    0.9     7     2.3   974.6    0.00 
 348   20:10   0.00   57.4    27    3.4   277     7.4   974.7    0.00 
 348   20:20   0.00   56.1    31    0.8    77     2.5   974.8    0.00 
 348   20:30   0.00   55.0    34    1.0    95     2.6   975.0    0.00 
 348   20:40   0.00   54.0    38    2.1   238     3.1   975.3    0.00 
 348   20:50   0.00   54.2    37    4.9   146     8.8   975.2    0.00 
 348   21:00   0.00   55.5    32    6.0   139     9.0   974.9    0.00 
 348   21:10   0.00   56.0    29    1.5    78     3.2   974.8    0.00 
 348   21:20   0.00   56.6    27    0.6   194     1.8   975.0    0.00 
 348   21:30   0.00   56.4    27    2.2   148     4.5   975.1    0.00 
 348   21:40   0.00   56.8    25    5.0   143     6.5   975.0    0.00 
 348   21:50   0.00   56.7    25    4.9   145     7.1   974.8    0.00 
 348   22:00   0.00   57.5    23    4.9   127     7.4   974.8    0.00 
 348   22:10   0.00   58.0    22    4.2   128     6.7   974.7    0.00 
 348   22:20   0.00   57.9    24    2.8   263     5.5   974.9    0.00 
 348   22:30   0.00   56.0    26    1.5   139     3.4   975.0    0.00 
 348   22:40   0.00   55.4    29    1.9   291     4.5   975.1    0.00 
 348   22:50   0.00   54.1    29    4.0   132     6.1   974.8    0.00 
 348   23:00   0.00   55.3    26    1.8   242     5.1   974.7    0.00 
 348   23:10   0.00   56.6    22    1.0   163     2.3   974.8    0.00 
 348   23:20   0.00   57.1    21    1.9   158     3.7   974.8    0.00 
 348   23:30   0.00   56.6    25    2.0   262     5.0   974.8    0.00 
 348   23:40   0.00   55.4    27    1.6   275     3.4   974.8    0.00 
 348   23:50   0.00   53.4    30    1.0   226     2.6   974.9    0.00 
 349    0:00   0.00   52.8    30    2.5   125     4.2   974.8    0.00 
 349    0:10   0.00   53.2    28    3.9   132     5.4   974.8    0.00 
 349    0:20   0.00   53.8    27    3.2   136     4.7   974.5    0.00 
 349    0:30   0.00   54.1    26    2.3   166     3.3   974.4    0.00 
 349    0:40   0.00   53.9    26    2.7   158     4.2   974.3    0.00 
 349    0:50   0.00   55.5    24    1.4   124     3.7   974.3    0.00 
 349    1:00   0.00   56.1    25    1.0   312     2.3   974.2    0.00 
 349    1:10   0.00   54.8    27    1.2   268     2.6   974.2    0.00 
 349    1:20   0.00   53.7    28    0.8   323     2.0   974.1    0.00 
 349    1:30   0.00   52.4    31    1.2   290     2.8   974.1    0.00 
 349    1:40   0.00   50.7    33    1.1   132     2.3   974.0    0.00 
 349    1:50   0.00   50.8    33    1.4   281     2.7   973.9    0.00 
 349    2:00   0.00   51.4    36    0.8   262     1.9   973.9    0.00 
 349    2:10   0.00   51.4    32    0.8   176     2.3   973.8    0.00 
 349    2:20   0.00   51.8    36    1.1   282     2.0   973.8    0.00 
 349    2:30   0.00   52.2    34    1.5   275     2.7   973.8    0.00 
 349    2:40   0.00   51.5    35    1.4   272     2.6   974.1    0.00 
 349    2:50   0.00   51.2    34    3.6   144     5.6   974.1    0.00 
 349    3:00   0.00   51.9    28    3.2   111     4.5   973.8    0.00 
 349    3:10   0.00   53.5    27    2.2   254     3.5   973.6    0.00 
 349    3:20   0.00   53.4    25    0.4   161     2.2   973.3    0.00 
 349    3:30   0.00   54.2    23    1.6   211     4.1   973.3    0.00 
 349    3:40   0.00   52.4    27    2.6   229     4.7   973.3    0.00 
 349    3:50   0.00   52.0    26    1.0   169     2.3   973.4    0.00 
 349    4:00   0.00   52.1    27    1.3   138     3.3   973.5    0.00 
 349    4:10   0.00   51.9    28    1.9   152     4.0   973.3    0.00 
 349    4:20   0.00   52.6    25    0.8   149     2.5   973.1    0.00 
 349    4:30   0.00   54.5    23    1.1   144     2.4   972.9    0.00 
 349    4:40   0.00   55.1    23    0.3   207     1.2   972.7    0.00 
 349    4:50   0.00   54.8    24    2.2   265     4.4   972.6    0.00 
 349    5:00   0.00   52.7    24    1.1   131     3.3   972.7    0.00 
 349    5:10   0.00   52.3    24    2.2   132     3.8   972.7    0.00 
 349    5:20   0.00   52.5    22    2.6   151     5.0   972.7    0.00 
 349    5:30   0.00   54.8    19    2.1   276     5.3   972.7    0.00 
 349    5:40   0.00   53.7    23    0.2   254     2.6   972.8    0.00 
 349    5:50   0.00   52.9    24    1.6   113     3.7   972.8    0.00 
 349    6:00   0.00   53.0    22    2.1   150     4.2   972.8    0.00 
 349    6:10   0.00   53.5    22    1.0   176     3.3   972.9    0.00 
 349    6:20   0.00   55.1    20    1.6   213     3.5   973.0    0.00 
 349    6:30   0.00   55.0    20    0.9   207     2.5   973.0    0.00 
 349    6:40   0.00   54.6    21    0.3   257     1.7   973.1    0.00 
 349    6:50   0.00   53.4    22    0.1   208     1.3   973.2    0.00 
 349    7:00   0.00   52.4    24    1.1   289     2.2   973.3    0.00 
 349    7:10   0.01   51.6    24    1.9   135     3.4   973.2    0.00 
 349    7:20   0.01   54.4    20    1.0   154     2.7   973.1    0.00 
 349    7:30   0.01   55.1    21    1.7   143     3.9   973.2    0.00 
 349    7:40   0.01   55.5    21    0.6   281     2.0   973.2    0.00 
 349    7:50   0.02   53.8    25    0.9    63     3.1   973.3    0.00 
 349    8:00   0.02   51.9    28    0.8   134     2.2   973.3    0.00 
 349    8:10   0.15   52.2    32    1.1   123     2.3   973.2    0.00 
 349    8:20   0.21   56.8    28    0.5   299     2.0   973.3    0.00 
 349    8:30   0.24   60.1    23    1.7   285     3.4   973.6    0.00 
 349    8:40   0.27   60.5    24    1.4   119     3.2   973.8    0.00 
 349    8:50   0.29   58.5    27    2.1   118     2.7   974.0    0.00 
 349    9:00   0.32   59.9    26    1.2    90     1.9   974.1    0.00 
 349    9:10   0.34   61.6    24    1.2   112     2.2   974.3    0.00 
 349    9:20   0.36   63.9    22    0.7   105     1.9   974.4    0.00 
 349    9:30   0.39   66.6    19    0.8     7     2.7   974.4    0.00 
 349    9:40   0.41   65.2    21    0.8    13     2.1   974.4    0.00 
 349    9:50   0.42   65.9    22    0.9   334     2.3   974.4    0.00 
 349   10:00   0.44   68.2    18    2.1   281     2.7   974.4    0.00 
 349   10:10   0.46   69.0    17    2.1   270     2.8   974.3    0.00 
 349   10:20   0.47   69.2    17    2.2   271     3.2   974.3    0.00 
 349   10:30   0.49   68.3    17    1.7   280     2.8   974.1    0.00 
 349   10:40   0.50   69.2    19    3.3   278     4.3   974.0    0.00 
 349   10:50   0.51   70.6    17    2.3   272     3.9   973.8    0.00 
 349   11:00   0.52   71.0    18    2.1   276     2.8   973.6    0.00 
 349   11:10   0.53   70.5    20    2.2   281     4.0   973.5    0.00 
 349   11:20   0.53   72.3    19    3.1   276     4.5   973.4    0.00 
 349   11:30   0.54   72.6    18    2.2   279     3.9   973.3    0.00 
 349   11:40   0.54   72.7    17    2.3   276     4.4   973.1    0.00 
 349   11:50   0.54   72.4    16    2.7   273     4.4   972.9    0.00 
 349   12:00   0.54   73.7    15    2.7   281     4.3   972.8    0.00 
 349   12:10   0.54   75.2    14    3.1   272     4.9   972.7    0.00 
 349   12:20   0.53   74.7    13    2.8   276     4.7   972.6    0.00 
 349   12:30   0.53   76.5    12    2.4   277     4.6   972.5    0.00 
 349   12:40   0.52   76.9    12    2.1   284     4.5   972.4    0.00 
 349   12:50   0.51   76.7    12    3.7   271     4.7   972.3    0.00 
 349   13:00   0.47   75.6    13    3.6   271     5.4   972.2    0.00 
 349   13:10   0.49   75.4    14    3.3   275     5.6   972.1    0.00 
 349   13:20   0.47   76.6    16    3.4   285     6.2   972.1    0.00 
 349   13:30   0.46   77.3    16    3.2   280     7.1   972.1    0.00 
 349   13:40   0.44   76.8    16    3.2   280     6.1   972.1    0.00 
 349   13:50   0.43   76.7    15    3.3   271     5.4   972.0    0.00 
 349   14:00   0.41   76.1    16    2.5   279     5.1   972.0    0.00 

Return to Stunt Ranch Reserve graphs page.


Western Regional Climate Center,wrcc@dri.edu